sensor_id;sensor_type;location;lat;lon;timestamp;P1;durP1;ratioP1;P2;durP2;ratioP2
46222;SDS011;31943;51.410;7.564;2022-07-23T00:01:05;19.42;;;14.48;;
46222;SDS011;31943;51.410;7.564;2022-07-23T00:03:31;14.25;;;12.77;;
46222;SDS011;31943;51.410;7.564;2022-07-23T00:05:56;15.02;;;12.40;;
46222;SDS011;31943;51.410;7.564;2022-07-23T00:08:22;17.13;;;14.38;;
46222;SDS011;31943;51.410;7.564;2022-07-23T00:10:48;21.40;;;13.05;;
46222;SDS011;31943;51.410;7.564;2022-07-23T00:13:15;17.55;;;13.70;;
46222;SDS011;31943;51.410;7.564;2022-07-23T00:15:41;21.02;;;13.65;;
46222;SDS011;31943;51.410;7.564;2022-07-23T00:18:07;14.48;;;11.75;;
46222;SDS011;31943;51.410;7.564;2022-07-23T00:20:32;14.73;;;12.60;;
46222;SDS011;31943;51.410;7.564;2022-07-23T00:22:58;18.88;;;14.25;;
46222;SDS011;31943;51.410;7.564;2022-07-23T00:25:23;19.55;;;14.52;;
46222;SDS011;31943;51.410;7.564;2022-07-23T00:27:49;19.90;;;14.93;;
46222;SDS011;31943;51.410;7.564;2022-07-23T00:30:16;23.27;;;14.82;;
46222;SDS011;31943;51.410;7.564;2022-07-23T00:32:46;16.85;;;14.60;;
46222;SDS011;31943;51.410;7.564;2022-07-23T00:35:12;17.40;;;14.48;;
46222;SDS011;31943;51.410;7.564;2022-07-23T00:37:38;18.13;;;13.98;;
46222;SDS011;31943;51.410;7.564;2022-07-23T00:40:04;15.15;;;12.75;;
46222;SDS011;31943;51.410;7.564;2022-07-23T00:42:30;18.55;;;14.23;;
46222;SDS011;31943;51.410;7.564;2022-07-23T00:44:56;19.70;;;14.43;;
46222;SDS011;31943;51.410;7.564;2022-07-23T00:47:23;18.08;;;14.77;;
46222;SDS011;31943;51.410;7.564;2022-07-23T00:49:49;17.10;;;12.70;;
46222;SDS011;31943;51.410;7.564;2022-07-23T00:52:14;19.20;;;13.93;;
46222;SDS011;31943;51.410;7.564;2022-07-23T00:54:40;20.38;;;14.07;;
46222;SDS011;31943;51.410;7.564;2022-07-23T00:57:06;18.17;;;14.02;;
46222;SDS011;31943;51.410;7.564;2022-07-23T00:59:32;15.30;;;13.68;;
46222;SDS011;31943;51.410;7.564;2022-07-23T01:01:58;17.48;;;14.40;;
46222;SDS011;31943;51.410;7.564;2022-07-23T01:04:25;16.58;;;14.80;;
46222;SDS011;31943;51.410;7.564;2022-07-23T01:06:51;19.65;;;15.15;;
46222;SDS011;31943;51.410;7.564;2022-07-23T01:09:17;15.90;;;12.95;;
46222;SDS011;31943;51.410;7.564;2022-07-23T01:11:44;14.98;;;11.82;;
46222;SDS011;31943;51.410;7.564;2022-07-23T01:14:13;16.55;;;13.00;;
46222;SDS011;31943;51.410;7.564;2022-07-23T01:16:39;17.88;;;14.43;;
46222;SDS011;31943;51.410;7.564;2022-07-23T01:19:06;14.38;;;12.88;;
46222;SDS011;31943;51.410;7.564;2022-07-23T01:21:34;16.13;;;14.48;;
46222;SDS011;31943;51.410;7.564;2022-07-23T01:24:04;18.95;;;15.75;;
46222;SDS011;31943;51.410;7.564;2022-07-23T01:26:30;21.83;;;15.88;;
46222;SDS011;31943;51.410;7.564;2022-07-23T01:28:56;15.50;;;12.80;;
46222;SDS011;31943;51.410;7.564;2022-07-23T01:31:22;16.85;;;13.45;;
46222;SDS011;31943;51.410;7.564;2022-07-23T01:33:48;16.23;;;14.05;;
46222;SDS011;31943;51.410;7.564;2022-07-23T01:36:13;15.40;;;13.75;;
46222;SDS011;31943;51.410;7.564;2022-07-23T01:38:39;19.90;;;15.75;;
46222;SDS011;31943;51.410;7.564;2022-07-23T01:41:06;16.75;;;12.75;;
46222;SDS011;31943;51.410;7.564;2022-07-23T01:43:32;16.13;;;14.52;;
46222;SDS011;31943;51.410;7.564;2022-07-23T01:45:57;19.17;;;16.23;;
46222;SDS011;31943;51.410;7.564;2022-07-23T01:48:23;18.00;;;14.02;;
46222;SDS011;31943;51.410;7.564;2022-07-23T01:50:49;19.48;;;17.38;;
46222;SDS011;31943;51.410;7.564;2022-07-23T01:53:15;17.55;;;14.65;;
46222;SDS011;31943;51.410;7.564;2022-07-23T01:55:41;19.15;;;15.65;;
46222;SDS011;31943;51.410;7.564;2022-07-23T01:58:08;23.70;;;16.35;;
46222;SDS011;31943;51.410;7.564;2022-07-23T02:00:34;20.85;;;16.70;;
46222;SDS011;31943;51.410;7.564;2022-07-23T02:02:59;20.80;;;17.02;;
46222;SDS011;31943;51.410;7.564;2022-07-23T02:05:25;23.27;;;17.25;;
46222;SDS011;31943;51.410;7.564;2022-07-23T02:07:51;20.75;;;16.80;;
46222;SDS011;31943;51.410;7.564;2022-07-23T02:10:17;20.63;;;16.95;;
46222;SDS011;31943;51.410;7.564;2022-07-23T02:12:43;18.95;;;15.05;;
46222;SDS011;31943;51.410;7.564;2022-07-23T02:15:10;20.50;;;16.92;;
46222;SDS011;31943;51.410;7.564;2022-07-23T02:17:36;23.15;;;17.48;;
46222;SDS011;31943;51.410;7.564;2022-07-23T02:20:02;19.17;;;16.00;;
46222;SDS011;31943;51.410;7.564;2022-07-23T02:22:29;16.67;;;13.82;;
46222;SDS011;31943;51.410;7.564;2022-07-23T02:24:54;17.38;;;13.25;;
46222;SDS011;31943;51.410;7.564;2022-07-23T02:27:20;17.50;;;13.52;;
46222;SDS011;31943;51.410;7.564;2022-07-23T02:29:46;17.60;;;15.68;;
46222;SDS011;31943;51.410;7.564;2022-07-23T02:32:13;19.48;;;15.55;;
46222;SDS011;31943;51.410;7.564;2022-07-23T02:34:38;24.42;;;17.00;;
46222;SDS011;31943;51.410;7.564;2022-07-23T02:37:04;22.27;;;15.85;;
46222;SDS011;31943;51.410;7.564;2022-07-23T02:39:29;20.10;;;16.88;;
46222;SDS011;31943;51.410;7.564;2022-07-23T02:41:55;17.42;;;15.40;;
46222;SDS011;31943;51.410;7.564;2022-07-23T02:44:21;14.43;;;12.52;;
46222;SDS011;31943;51.410;7.564;2022-07-23T02:46:47;14.52;;;13.02;;
46222;SDS011;31943;51.410;7.564;2022-07-23T02:49:14;15.90;;;13.82;;
46222;SDS011;31943;51.410;7.564;2022-07-23T02:51:40;13.98;;;12.57;;
46222;SDS011;31943;51.410;7.564;2022-07-23T02:54:06;16.50;;;12.57;;
46222;SDS011;31943;51.410;7.564;2022-07-23T02:56:32;16.27;;;12.93;;
46222;SDS011;31943;51.410;7.564;2022-07-23T02:58:58;17.60;;;13.73;;
46222;SDS011;31943;51.410;7.564;2022-07-23T03:01:23;16.52;;;13.98;;
46222;SDS011;31943;51.410;7.564;2022-07-23T03:03:49;18.45;;;14.85;;
46222;SDS011;31943;51.410;7.564;2022-07-23T03:06:16;18.42;;;14.98;;
46222;SDS011;31943;51.410;7.564;2022-07-23T03:08:42;16.10;;;14.13;;
46222;SDS011;31943;51.410;7.564;2022-07-23T03:11:08;15.50;;;13.77;;
46222;SDS011;31943;51.410;7.564;2022-07-23T03:13:34;15.07;;;12.88;;
46222;SDS011;31943;51.410;7.564;2022-07-23T03:15:59;15.50;;;13.30;;
46222;SDS011;31943;51.410;7.564;2022-07-23T03:18:25;15.10;;;13.02;;
46222;SDS011;31943;51.410;7.564;2022-07-23T03:20:50;16.73;;;13.98;;
46222;SDS011;31943;51.410;7.564;2022-07-23T03:23:17;14.93;;;13.35;;
46222;SDS011;31943;51.410;7.564;2022-07-23T03:25:43;16.13;;;13.02;;
46222;SDS011;31943;51.410;7.564;2022-07-23T03:28:09;18.42;;;12.77;;
46222;SDS011;31943;51.410;7.564;2022-07-23T03:30:34;17.17;;;12.52;;
46222;SDS011;31943;51.410;7.564;2022-07-23T03:33:00;13.93;;;12.07;;
46222;SDS011;31943;51.410;7.564;2022-07-23T03:35:25;15.13;;;11.63;;
46222;SDS011;31943;51.410;7.564;2022-07-23T03:37:52;17.20;;;12.40;;
46222;SDS011;31943;51.410;7.564;2022-07-23T03:40:19;13.15;;;11.73;;
46222;SDS011;31943;51.410;7.564;2022-07-23T03:42:44;13.93;;;11.80;;
46222;SDS011;31943;51.410;7.564;2022-07-23T03:45:10;13.50;;;12.10;;
46222;SDS011;31943;51.410;7.564;2022-07-23T03:47:36;18.25;;;14.00;;
46222;SDS011;31943;51.410;7.564;2022-07-23T03:50:02;21.70;;;15.10;;
46222;SDS011;31943;51.410;7.564;2022-07-23T03:52:28;19.98;;;14.32;;
46222;SDS011;31943;51.410;7.564;2022-07-23T03:54:54;15.60;;;12.63;;
46222;SDS011;31943;51.410;7.564;2022-07-23T03:57:21;17.85;;;13.10;;
46222;SDS011;31943;51.410;7.564;2022-07-23T03:59:46;13.82;;;12.07;;
46222;SDS011;31943;51.410;7.564;2022-07-23T04:02:12;16.75;;;14.00;;
46222;SDS011;31943;51.410;7.564;2022-07-23T04:04:38;15.70;;;13.50;;
46222;SDS011;31943;51.410;7.564;2022-07-23T04:07:03;17.58;;;12.60;;
46222;SDS011;31943;51.410;7.564;2022-07-23T04:09:29;15.32;;;12.27;;
46222;SDS011;31943;51.410;7.564;2022-07-23T04:11:55;17.48;;;12.48;;
46222;SDS011;31943;51.410;7.564;2022-07-23T04:14:22;15.80;;;12.73;;
46222;SDS011;31943;51.410;7.564;2022-07-23T04:16:47;19.98;;;13.93;;
46222;SDS011;31943;51.410;7.564;2022-07-23T04:19:13;17.08;;;12.55;;
46222;SDS011;31943;51.410;7.564;2022-07-23T04:21:39;26.38;;;15.90;;
46222;SDS011;31943;51.410;7.564;2022-07-23T04:24:04;19.05;;;14.88;;
46222;SDS011;31943;51.410;7.564;2022-07-23T04:26:31;21.88;;;15.02;;
46222;SDS011;31943;51.410;7.564;2022-07-23T04:28:57;19.88;;;14.95;;
46222;SDS011;31943;51.410;7.564;2022-07-23T04:31:24;21.85;;;15.07;;
46222;SDS011;31943;51.410;7.564;2022-07-23T04:33:50;33.50;;;20.75;;
46222;SDS011;31943;51.410;7.564;2022-07-23T04:36:16;38.80;;;20.58;;
46222;SDS011;31943;51.410;7.564;2022-07-23T04:38:41;25.20;;;18.85;;
46222;SDS011;31943;51.410;7.564;2022-07-23T04:41:07;35.13;;;20.83;;
46222;SDS011;31943;51.410;7.564;2022-07-23T04:43:33;24.15;;;18.13;;
46222;SDS011;31943;51.410;7.564;2022-07-23T04:45:59;26.70;;;19.15;;
46222;SDS011;31943;51.410;7.564;2022-07-23T04:48:27;47.42;;;19.02;;
46222;SDS011;31943;51.410;7.564;2022-07-23T04:50:53;20.45;;;16.10;;
46222;SDS011;31943;51.410;7.564;2022-07-23T04:53:19;18.88;;;15.88;;
46222;SDS011;31943;51.410;7.564;2022-07-23T04:55:45;21.02;;;17.73;;
46222;SDS011;31943;51.410;7.564;2022-07-23T04:58:11;21.63;;;17.48;;
46222;SDS011;31943;51.410;7.564;2022-07-23T05:00:37;31.70;;;20.25;;
46222;SDS011;31943;51.410;7.564;2022-07-23T05:03:02;43.90;;;21.23;;
46222;SDS011;31943;51.410;7.564;2022-07-23T05:05:30;43.38;;;21.75;;
46222;SDS011;31943;51.410;7.564;2022-07-23T05:07:56;63.80;;;21.85;;
46222;SDS011;31943;51.410;7.564;2022-07-23T05:10:22;47.03;;;21.55;;
46222;SDS011;31943;51.410;7.564;2022-07-23T05:12:47;42.42;;;22.20;;
46222;SDS011;31943;51.410;7.564;2022-07-23T05:15:13;29.77;;;20.58;;
46222;SDS011;31943;51.410;7.564;2022-07-23T05:17:39;57.55;;;23.35;;
46222;SDS011;31943;51.410;7.564;2022-07-23T05:20:05;34.40;;;22.35;;
46222;SDS011;31943;51.410;7.564;2022-07-23T05:22:32;41.92;;;22.42;;
46222;SDS011;31943;51.410;7.564;2022-07-23T05:24:58;91.25;;;22.98;;
46222;SDS011;31943;51.410;7.564;2022-07-23T05:27:24;40.40;;;21.70;;
46222;SDS011;31943;51.410;7.564;2022-07-23T05:29:50;82.63;;;23.50;;
46222;SDS011;31943;51.410;7.564;2022-07-23T05:32:15;70.07;;;21.83;;
46222;SDS011;31943;51.410;7.564;2022-07-23T05:34:41;28.17;;;20.83;;
46222;SDS011;31943;51.410;7.564;2022-07-23T05:37:07;30.13;;;21.17;;
46222;SDS011;31943;51.410;7.564;2022-07-23T05:39:34;51.28;;;22.08;;
46222;SDS011;31943;51.410;7.564;2022-07-23T05:42:00;30.48;;;22.92;;
46222;SDS011;31943;51.410;7.564;2022-07-23T05:44:32;29.85;;;23.10;;
46222;SDS011;31943;51.410;7.564;2022-07-23T05:46:58;26.08;;;20.08;;
46222;SDS011;31943;51.410;7.564;2022-07-23T05:49:23;22.92;;;19.27;;
46222;SDS011;31943;51.410;7.564;2022-07-23T05:51:49;21.58;;;18.45;;
46222;SDS011;31943;51.410;7.564;2022-07-23T05:54:14;28.33;;;20.90;;
46222;SDS011;31943;51.410;7.564;2022-07-23T05:56:41;30.05;;;22.40;;
46222;SDS011;31943;51.410;7.564;2022-07-23T05:59:07;30.17;;;22.83;;
46222;SDS011;31943;51.410;7.564;2022-07-23T06:01:33;24.08;;;19.13;;
46222;SDS011;31943;51.410;7.564;2022-07-23T06:03:59;25.15;;;20.90;;
46222;SDS011;31943;51.410;7.564;2022-07-23T06:06:25;21.88;;;17.50;;
46222;SDS011;31943;51.410;7.564;2022-07-23T06:08:51;22.02;;;18.77;;
46222;SDS011;31943;51.410;7.564;2022-07-23T06:11:17;28.10;;;20.17;;
46222;SDS011;31943;51.410;7.564;2022-07-23T06:13:44;25.20;;;21.27;;
46222;SDS011;31943;51.410;7.564;2022-07-23T06:16:10;19.52;;;17.58;;
46222;SDS011;31943;51.410;7.564;2022-07-23T06:18:36;21.90;;;19.42;;
46222;SDS011;31943;51.410;7.564;2022-07-23T06:21:02;21.73;;;18.63;;
46222;SDS011;31943;51.410;7.564;2022-07-23T06:23:28;23.02;;;19.77;;
46222;SDS011;31943;51.410;7.564;2022-07-23T06:25:54;20.48;;;18.33;;
46222;SDS011;31943;51.410;7.564;2022-07-23T06:28:20;20.17;;;18.08;;
46222;SDS011;31943;51.410;7.564;2022-07-23T06:30:47;18.85;;;16.77;;
46222;SDS011;31943;51.410;7.564;2022-07-23T06:33:13;18.60;;;16.65;;
46222;SDS011;31943;51.410;7.564;2022-07-23T06:35:39;22.40;;;19.77;;
46222;SDS011;31943;51.410;7.564;2022-07-23T06:38:05;23.65;;;20.33;;
46222;SDS011;31943;51.410;7.564;2022-07-23T06:40:30;22.77;;;19.65;;
46222;SDS011;31943;51.410;7.564;2022-07-23T06:42:56;23.73;;;20.45;;
46222;SDS011;31943;51.410;7.564;2022-07-23T06:45:22;26.80;;;19.73;;
46222;SDS011;31943;51.410;7.564;2022-07-23T06:47:49;20.40;;;18.17;;
46222;SDS011;31943;51.410;7.564;2022-07-23T06:50:15;18.35;;;16.45;;
46222;SDS011;31943;51.410;7.564;2022-07-23T06:52:40;18.65;;;16.67;;
46222;SDS011;31943;51.410;7.564;2022-07-23T06:55:08;22.35;;;19.85;;
46222;SDS011;31943;51.410;7.564;2022-07-23T06:57:34;19.38;;;17.02;;
46222;SDS011;31943;51.410;7.564;2022-07-23T06:59:59;19.88;;;17.02;;
46222;SDS011;31943;51.410;7.564;2022-07-23T07:02:25;19.33;;;17.33;;
46222;SDS011;31943;51.410;7.564;2022-07-23T07:04:52;23.38;;;20.88;;
46222;SDS011;31943;51.410;7.564;2022-07-23T07:07:18;17.80;;;15.90;;
46222;SDS011;31943;51.410;7.564;2022-07-23T07:09:44;16.00;;;14.32;;
46222;SDS011;31943;51.410;7.564;2022-07-23T07:12:10;23.45;;;19.80;;
46222;SDS011;31943;51.410;7.564;2022-07-23T07:14:35;23.00;;;19.05;;
46222;SDS011;31943;51.410;7.564;2022-07-23T07:17:01;21.17;;;18.92;;
46222;SDS011;31943;51.410;7.564;2022-07-23T07:19:27;24.77;;;21.60;;
46222;SDS011;31943;51.410;7.564;2022-07-23T07:21:54;20.02;;;17.92;;
46222;SDS011;31943;51.410;7.564;2022-07-23T07:24:19;20.63;;;18.45;;
46222;SDS011;31943;51.410;7.564;2022-07-23T07:26:45;23.55;;;21.15;;
46222;SDS011;31943;51.410;7.564;2022-07-23T07:29:11;23.63;;;20.17;;
46222;SDS011;31943;51.410;7.564;2022-07-23T07:31:37;21.85;;;18.83;;
46222;SDS011;31943;51.410;7.564;2022-07-23T07:34:03;19.50;;;17.33;;
46222;SDS011;31943;51.410;7.564;2022-07-23T07:36:28;19.85;;;17.67;;
46222;SDS011;31943;51.410;7.564;2022-07-23T07:38:55;22.50;;;18.05;;
46222;SDS011;31943;51.410;7.564;2022-07-23T07:41:21;20.40;;;17.60;;
46222;SDS011;31943;51.410;7.564;2022-07-23T07:43:47;19.25;;;17.33;;
46222;SDS011;31943;51.410;7.564;2022-07-23T07:46:12;20.80;;;18.50;;
46222;SDS011;31943;51.410;7.564;2022-07-23T07:48:38;18.17;;;16.25;;
46222;SDS011;31943;51.410;7.564;2022-07-23T07:51:03;18.77;;;16.83;;
46222;SDS011;31943;51.410;7.564;2022-07-23T07:53:30;22.05;;;19.75;;
46222;SDS011;31943;51.410;7.564;2022-07-23T07:55:58;17.58;;;15.88;;
46222;SDS011;31943;51.410;7.564;2022-07-23T07:58:23;20.98;;;18.77;;
46222;SDS011;31943;51.410;7.564;2022-07-23T08:00:49;20.30;;;18.20;;
46222;SDS011;31943;51.410;7.564;2022-07-23T08:03:15;21.17;;;18.98;;
46222;SDS011;31943;51.410;7.564;2022-07-23T08:05:40;19.08;;;17.05;;
46222;SDS011;31943;51.410;7.564;2022-07-23T08:08:06;19.23;;;17.35;;
46222;SDS011;31943;51.410;7.564;2022-07-23T08:10:32;21.15;;;18.95;;
46222;SDS011;31943;51.410;7.564;2022-07-23T08:12:59;18.30;;;16.40;;
46222;SDS011;31943;51.410;7.564;2022-07-23T08:15:25;16.38;;;14.63;;
46222;SDS011;31943;51.410;7.564;2022-07-23T08:17:52;18.17;;;15.98;;
46222;SDS011;31943;51.410;7.564;2022-07-23T08:20:19;21.30;;;18.85;;
46222;SDS011;31943;51.410;7.564;2022-07-23T08:22:47;21.23;;;18.40;;
46222;SDS011;31943;51.410;7.564;2022-07-23T08:25:15;22.27;;;20.02;;
46222;SDS011;31943;51.410;7.564;2022-07-23T08:27:41;20.30;;;18.20;;
46222;SDS011;31943;51.410;7.564;2022-07-23T08:30:08;22.13;;;18.58;;
46222;SDS011;31943;51.410;7.564;2022-07-23T08:32:49;23.05;;;20.08;;
46222;SDS011;31943;51.410;7.564;2022-07-23T08:35:15;26.75;;;24.15;;
46222;SDS011;31943;51.410;7.564;2022-07-23T08:37:41;28.88;;;25.85;;
46222;SDS011;31943;51.410;7.564;2022-07-23T08:40:07;28.83;;;25.83;;
46222;SDS011;31943;51.410;7.564;2022-07-23T08:42:37;30.15;;;27.10;;
46222;SDS011;31943;51.410;7.564;2022-07-23T08:45:04;28.35;;;25.45;;
46222;SDS011;31943;51.410;7.564;2022-07-23T08:47:33;30.73;;;27.70;;
46222;SDS011;31943;51.410;7.564;2022-07-23T08:49:59;29.08;;;26.02;;
46222;SDS011;31943;51.410;7.564;2022-07-23T08:52:26;24.75;;;22.17;;
46222;SDS011;31943;51.410;7.564;2022-07-23T08:54:52;22.95;;;20.55;;
46222;SDS011;31943;51.410;7.564;2022-07-23T08:57:19;27.52;;;24.05;;
46222;SDS011;31943;51.410;7.564;2022-07-23T08:59:45;25.35;;;22.77;;
46222;SDS011;31943;51.410;7.564;2022-07-23T09:02:11;25.15;;;22.58;;
46222;SDS011;31943;51.410;7.564;2022-07-23T09:04:39;29.42;;;26.52;;
46222;SDS011;31943;51.410;7.564;2022-07-23T09:07:05;25.15;;;22.58;;
46222;SDS011;31943;51.410;7.564;2022-07-23T09:09:31;27.35;;;24.17;;
46222;SDS011;31943;51.410;7.564;2022-07-23T09:12:03;26.65;;;24.05;;
46222;SDS011;31943;51.410;7.564;2022-07-23T09:14:36;28.67;;;25.88;;
46222;SDS011;31943;51.410;7.564;2022-07-23T09:17:07;29.05;;;26.23;;
46222;SDS011;31943;51.410;7.564;2022-07-23T09:19:34;26.48;;;23.98;;
46222;SDS011;31943;51.410;7.564;2022-07-23T09:27:45;27.95;;;25.13;;
46222;SDS011;31943;51.410;7.564;2022-07-23T09:30:15;24.73;;;22.35;;
46222;SDS011;31943;51.410;7.564;2022-07-23T09:32:41;25.88;;;23.58;;
46222;SDS011;31943;51.410;7.564;2022-07-23T09:35:07;24.63;;;22.20;;
46222;SDS011;31943;51.410;7.564;2022-07-23T09:37:34;24.70;;;22.42;;
46222;SDS011;31943;51.410;7.564;2022-07-23T09:40:03;24.42;;;22.02;;
46222;SDS011;31943;51.410;7.564;2022-07-23T09:42:29;24.63;;;22.08;;
46222;SDS011;31943;51.410;7.564;2022-07-23T09:44:56;22.08;;;20.05;;
46222;SDS011;31943;51.410;7.564;2022-07-23T09:47:23;22.77;;;20.55;;
46222;SDS011;31943;51.410;7.564;2022-07-23T09:50:00;23.45;;;21.33;;
46222;SDS011;31943;51.410;7.564;2022-07-23T09:52:28;22.98;;;20.48;;
46222;SDS011;31943;51.410;7.564;2022-07-23T09:54:59;22.38;;;20.38;;
46222;SDS011;31943;51.410;7.564;2022-07-23T09:57:25;22.92;;;20.77;;
46222;SDS011;31943;51.410;7.564;2022-07-23T09:59:52;19.67;;;17.88;;
46222;SDS011;31943;51.410;7.564;2022-07-23T10:02:18;19.42;;;17.67;;
46222;SDS011;31943;51.410;7.564;2022-07-23T10:04:44;17.80;;;16.20;;
46222;SDS011;31943;51.410;7.564;2022-07-23T10:07:12;17.48;;;15.88;;
46222;SDS011;31943;51.410;7.564;2022-07-23T10:09:42;18.90;;;17.10;;
46222;SDS011;31943;51.410;7.564;2022-07-23T10:12:12;17.38;;;15.77;;
46222;SDS011;31943;51.410;7.564;2022-07-23T10:14:38;17.03;;;15.53;;
46222;SDS011;31943;51.410;7.564;2022-07-23T10:17:05;17.35;;;15.60;;
46222;SDS011;31943;51.410;7.564;2022-07-23T10:19:30;17.17;;;15.50;;
46222;SDS011;31943;51.410;7.564;2022-07-23T10:21:58;15.02;;;13.68;;
46222;SDS011;31943;51.410;7.564;2022-07-23T10:24:28;15.57;;;14.07;;
46222;SDS011;31943;51.410;7.564;2022-07-23T10:27:12;11.55;;;9.23;;
46222;SDS011;31943;51.410;7.564;2022-07-23T10:29:51;9.43;;;8.40;;
46222;SDS011;31943;51.410;7.564;2022-07-23T10:32:26;10.05;;;8.52;;
46222;SDS011;31943;51.410;7.564;2022-07-23T10:35:04;10.05;;;8.68;;
46222;SDS011;31943;51.410;7.564;2022-07-23T10:37:36;11.98;;;10.02;;
46222;SDS011;31943;51.410;7.564;2022-07-23T10:40:11;10.70;;;9.68;;
46222;SDS011;31943;51.410;7.564;2022-07-23T10:42:40;9.70;;;8.80;;
46222;SDS011;31943;51.410;7.564;2022-07-23T10:45:28;9.77;;;7.82;;
46222;SDS011;31943;51.410;7.564;2022-07-23T10:47:56;8.23;;;6.97;;
46222;SDS011;31943;51.410;7.564;2022-07-23T10:50:37;9.50;;;7.22;;
46222;SDS011;31943;51.410;7.564;2022-07-23T10:53:13;7.25;;;6.40;;
46222;SDS011;31943;51.410;7.564;2022-07-23T10:55:41;7.82;;;6.53;;
46222;SDS011;31943;51.410;7.564;2022-07-23T10:58:10;6.50;;;5.88;;
46222;SDS011;31943;51.410;7.564;2022-07-23T11:00:41;7.90;;;5.50;;
46222;SDS011;31943;51.410;7.564;2022-07-23T11:05:56;7.30;;;5.60;;
46222;SDS011;31943;51.410;7.564;2022-07-23T11:08:21;8.13;;;5.30;;
46222;SDS011;31943;51.410;7.564;2022-07-23T11:10:48;5.95;;;5.00;;
46222;SDS011;31943;51.410;7.564;2022-07-23T11:13:30;7.32;;;5.43;;
46222;SDS011;31943;51.410;7.564;2022-07-23T11:16:07;6.37;;;5.00;;
46222;SDS011;31943;51.410;7.564;2022-07-23T11:21:45;5.25;;;4.75;;
46222;SDS011;31943;51.410;7.564;2022-07-23T11:24:13;6.13;;;4.97;;
46222;SDS011;31943;51.410;7.564;2022-07-23T11:26:41;6.72;;;5.00;;
46222;SDS011;31943;51.410;7.564;2022-07-23T11:32:17;4.10;;;3.67;;
46222;SDS011;31943;51.410;7.564;2022-07-23T11:34:55;4.85;;;3.55;;
46222;SDS011;31943;51.410;7.564;2022-07-23T11:37:27;4.88;;;3.78;;
46222;SDS011;31943;51.410;7.564;2022-07-23T11:39:58;8.90;;;4.97;;
46222;SDS011;31943;51.410;7.564;2022-07-23T11:42:23;4.97;;;4.00;;
46222;SDS011;31943;51.410;7.564;2022-07-23T11:44:49;4.00;;;3.40;;
46222;SDS011;31943;51.410;7.564;2022-07-23T11:47:21;5.07;;;3.08;;
46222;SDS011;31943;51.410;7.564;2022-07-23T11:49:51;3.85;;;3.53;;
46222;SDS011;31943;51.410;7.564;2022-07-23T11:52:18;4.00;;;3.38;;
46222;SDS011;31943;51.410;7.564;2022-07-23T11:54:47;4.28;;;3.55;;
46222;SDS011;31943;51.410;7.564;2022-07-23T11:57:13;3.90;;;3.30;;
46222;SDS011;31943;51.410;7.564;2022-07-23T11:59:40;4.10;;;3.70;;
46222;SDS011;31943;51.410;7.564;2022-07-23T12:02:07;3.90;;;3.60;;
46222;SDS011;31943;51.410;7.564;2022-07-23T12:04:41;5.05;;;4.00;;
46222;SDS011;31943;51.410;7.564;2022-07-23T12:07:22;5.68;;;3.63;;
46222;SDS011;31943;51.410;7.564;2022-07-23T12:09:49;5.05;;;4.53;;
46222;SDS011;31943;51.410;7.564;2022-07-23T12:12:14;6.28;;;3.30;;
46222;SDS011;31943;51.410;7.564;2022-07-23T12:14:46;5.78;;;3.92;;
46222;SDS011;31943;51.410;7.564;2022-07-23T12:17:13;4.03;;;3.63;;
46222;SDS011;31943;51.410;7.564;2022-07-23T12:19:38;5.15;;;3.78;;
46222;SDS011;31943;51.410;7.564;2022-07-23T12:22:06;4.80;;;4.43;;
46222;SDS011;31943;51.410;7.564;2022-07-23T12:27:22;5.13;;;4.30;;
46222;SDS011;31943;51.410;7.564;2022-07-23T12:29:48;4.78;;;3.35;;
46222;SDS011;31943;51.410;7.564;2022-07-23T12:32:21;3.60;;;3.20;;
46222;SDS011;31943;51.410;7.564;2022-07-23T12:34:50;3.35;;;3.05;;
46222;SDS011;31943;51.410;7.564;2022-07-23T12:37:27;3.63;;;3.33;;
46222;SDS011;31943;51.410;7.564;2022-07-23T12:39:53;3.13;;;2.80;;
46222;SDS011;31943;51.410;7.564;2022-07-23T12:42:18;3.80;;;3.22;;
46222;SDS011;31943;51.410;7.564;2022-07-23T12:50:36;3.00;;;2.53;;
46222;SDS011;31943;51.410;7.564;2022-07-23T12:53:08;2.63;;;2.25;;
46222;SDS011;31943;51.410;7.564;2022-07-23T12:55:37;4.03;;;2.33;;
46222;SDS011;31943;51.410;7.564;2022-07-23T12:58:04;3.63;;;2.13;;
46222;SDS011;31943;51.410;7.564;2022-07-23T13:00:31;5.30;;;3.13;;
46222;SDS011;31943;51.410;7.564;2022-07-23T13:02:57;3.13;;;2.70;;
46222;SDS011;31943;51.410;7.564;2022-07-23T13:05:23;3.00;;;2.15;;
46222;SDS011;31943;51.410;7.564;2022-07-23T13:07:51;3.58;;;1.85;;
46222;SDS011;31943;51.410;7.564;2022-07-23T13:10:16;2.90;;;2.00;;
46222;SDS011;31943;51.410;7.564;2022-07-23T13:12:42;3.22;;;2.22;;
46222;SDS011;31943;51.410;7.564;2022-07-23T13:15:08;3.45;;;1.95;;
46222;SDS011;31943;51.410;7.564;2022-07-23T13:17:34;3.67;;;2.20;;
46222;SDS011;31943;51.410;7.564;2022-07-23T13:20:00;7.50;;;2.33;;
46222;SDS011;31943;51.410;7.564;2022-07-23T13:22:25;3.92;;;2.00;;
46222;SDS011;31943;51.410;7.564;2022-07-23T13:24:52;2.83;;;1.80;;
46222;SDS011;31943;51.410;7.564;2022-07-23T13:27:18;2.55;;;1.90;;
46222;SDS011;31943;51.410;7.564;2022-07-23T13:29:44;4.70;;;2.00;;
46222;SDS011;31943;51.410;7.564;2022-07-23T13:32:12;4.97;;;2.08;;
46222;SDS011;31943;51.410;7.564;2022-07-23T13:34:38;4.15;;;2.30;;
46222;SDS011;31943;51.410;7.564;2022-07-23T13:37:04;3.13;;;2.08;;
46222;SDS011;31943;51.410;7.564;2022-07-23T13:39:29;2.85;;;1.60;;
46222;SDS011;31943;51.410;7.564;2022-07-23T13:41:57;2.65;;;2.00;;
46222;SDS011;31943;51.410;7.564;2022-07-23T13:44:23;4.25;;;1.83;;
46222;SDS011;31943;51.410;7.564;2022-07-23T13:46:49;2.60;;;1.85;;
46222;SDS011;31943;51.410;7.564;2022-07-23T13:49:14;3.33;;;2.10;;
46222;SDS011;31943;51.410;7.564;2022-07-23T13:51:40;3.53;;;1.92;;
46222;SDS011;31943;51.410;7.564;2022-07-23T13:54:06;2.28;;;1.95;;
46222;SDS011;31943;51.410;7.564;2022-07-23T13:56:32;2.25;;;1.60;;
46222;SDS011;31943;51.410;7.564;2022-07-23T13:58:59;2.63;;;2.00;;
46222;SDS011;31943;51.410;7.564;2022-07-23T14:01:25;2.70;;;1.73;;
46222;SDS011;31943;51.410;7.564;2022-07-23T14:03:50;2.30;;;2.00;;
46222;SDS011;31943;51.410;7.564;2022-07-23T14:06:16;2.97;;;2.20;;
46222;SDS011;31943;51.410;7.564;2022-07-23T14:08:42;2.70;;;1.92;;
46222;SDS011;31943;51.410;7.564;2022-07-23T14:11:07;3.90;;;2.17;;
46222;SDS011;31943;51.410;7.564;2022-07-23T14:13:33;3.47;;;2.10;;
46222;SDS011;31943;51.410;7.564;2022-07-23T14:16:00;4.05;;;2.13;;
46222;SDS011;31943;51.410;7.564;2022-07-23T14:18:25;3.45;;;1.70;;
46222;SDS011;31943;51.410;7.564;2022-07-23T14:20:51;3.05;;;1.77;;
46222;SDS011;31943;51.410;7.564;2022-07-23T14:23:17;2.45;;;2.25;;
46222;SDS011;31943;51.410;7.564;2022-07-23T14:25:42;3.65;;;2.22;;
46222;SDS011;31943;51.410;7.564;2022-07-23T14:28:08;5.57;;;2.00;;
46222;SDS011;31943;51.410;7.564;2022-07-23T14:30:33;2.45;;;2.00;;
46222;SDS011;31943;51.410;7.564;2022-07-23T14:33:00;3.38;;;2.00;;
46222;SDS011;31943;51.410;7.564;2022-07-23T14:35:26;3.17;;;2.30;;
46222;SDS011;31943;51.410;7.564;2022-07-23T14:37:52;5.38;;;2.15;;
46222;SDS011;31943;51.410;7.564;2022-07-23T14:40:17;2.30;;;2.00;;
46222;SDS011;31943;51.410;7.564;2022-07-23T14:42:43;2.53;;;2.25;;
46222;SDS011;31943;51.410;7.564;2022-07-23T14:45:09;4.22;;;1.70;;
46222;SDS011;31943;51.410;7.564;2022-07-23T14:47:35;4.85;;;2.20;;
46222;SDS011;31943;51.410;7.564;2022-07-23T14:50:03;4.05;;;2.20;;